sensor_id;sensor_type;location;lat;lon;timestamp;pressure;altitude;pressure_sealevel;temperature;humidity
34081;BME280;20358;50.272;19.026;2023-09-19T00:02:46;97588.47;;;24.25;50.61
34081;BME280;20358;50.272;19.026;2023-09-19T00:05:58;97585.97;;;24.24;50.79
34081;BME280;20358;50.272;19.026;2023-09-19T00:09:11;97578.59;;;24.26;50.89
34081;BME280;20358;50.272;19.026;2023-09-19T00:12:18;97578.59;;;24.26;50.73
34081;BME280;20358;50.272;19.026;2023-09-19T00:15:28;97576.59;;;24.28;50.79
34081;BME280;20358;50.272;19.026;2023-09-19T00:18:37;97571.41;;;24.26;50.66
34081;BME280;20358;50.272;19.026;2023-09-19T00:21:45;97571.41;;;24.26;50.73
34081;BME280;20358;50.272;19.026;2023-09-19T00:24:53;97580.44;;;24.25;51.07
34081;BME280;20358;50.272;19.026;2023-09-19T00:27:59;97570.56;;;24.26;50.92
34081;BME280;20358;50.272;19.026;2023-09-19T00:31:13;97561.75;;;24.25;50.89
34081;BME280;20358;50.272;19.026;2023-09-19T00:34:20;97556.41;;;24.25;50.83
34081;BME280;20358;50.272;19.026;2023-09-19T00:37:29;97557.91;;;24.28;51.07
34081;BME280;20358;50.272;19.026;2023-09-19T00:40:35;97559.53;;;24.29;51.07
34081;BME280;20358;50.272;19.026;2023-09-19T00:43:42;97554.84;;;24.31;50.93
34081;BME280;20358;50.272;19.026;2023-09-19T00:46:53;97544.16;;;24.31;51.16
34081;BME280;20358;50.272;19.026;2023-09-19T00:50:08;97548.50;;;24.32;51.09
34081;BME280;20358;50.272;19.026;2023-09-19T00:53:21;97537.16;;;24.30;51.17
34081;BME280;20358;50.272;19.026;2023-09-19T00:56:33;97535.97;;;24.32;50.93
34081;BME280;20358;50.272;19.026;2023-09-19T00:59:42;97539.47;;;24.33;51.05
34081;BME280;20358;50.272;19.026;2023-09-19T01:02:53;97530.28;;;24.35;51.11
34081;BME280;20358;50.272;19.026;2023-09-19T01:06:00;97531.47;;;24.33;51.19
34081;BME280;20358;50.272;19.026;2023-09-19T01:09:08;97526.63;;;24.28;51.04
34081;BME280;20358;50.272;19.026;2023-09-19T01:12:24;97526.84;;;24.27;51.17
34081;BME280;20358;50.272;19.026;2023-09-19T01:15:51;97514.47;;;24.26;51.41
34081;BME280;20358;50.272;19.026;2023-09-19T01:23:17;97510.81;;;24.27;51.38
34081;BME280;20358;50.272;19.026;2023-09-19T01:30:26;97494.50;;;24.22;51.13
34081;BME280;20358;50.272;19.026;2023-09-19T01:33:54;97496.34;;;24.21;51.50
34081;BME280;20358;50.272;19.026;2023-09-19T01:37:14;97496.03;;;24.16;51.75
34081;BME280;20358;50.272;19.026;2023-09-19T01:40:23;97496.25;;;24.15;51.41
34081;BME280;20358;50.272;19.026;2023-09-19T01:43:35;97493.72;;;24.13;51.72
34081;BME280;20358;50.272;19.026;2023-09-19T01:46:49;97491.53;;;24.17;51.59
34081;BME280;20358;50.272;19.026;2023-09-19T01:50:07;97485.16;;;24.18;51.55
34081;BME280;20358;50.272;19.026;2023-09-19T01:53:25;97491.19;;;24.20;51.59
34081;BME280;20358;50.272;19.026;2023-09-19T01:56:49;97498.16;;;24.21;51.52
34081;BME280;20358;50.272;19.026;2023-09-19T02:00:07;97492.81;;;24.21;51.45
34081;BME280;20358;50.272;19.026;2023-09-19T02:03:20;97492.47;;;24.24;51.23
34081;BME280;20358;50.272;19.026;2023-09-19T02:06:28;97494.13;;;24.25;51.42
34081;BME280;20358;50.272;19.026;2023-09-19T02:09:41;97498.28;;;24.27;51.48
34081;BME280;20358;50.272;19.026;2023-09-19T02:12:48;97494.78;;;24.27;51.50
34081;BME280;20358;50.272;19.026;2023-09-19T02:15:56;97491.09;;;24.28;51.56
34081;BME280;20358;50.272;19.026;2023-09-19T02:19:06;97494.78;;;24.27;51.51
34081;BME280;20358;50.272;19.026;2023-09-19T02:22:13;97502.16;;;24.25;51.54
34081;BME280;20358;50.272;19.026;2023-09-19T02:25:20;97495.13;;;24.24;51.76
34081;BME280;20358;50.272;19.026;2023-09-19T02:28:31;97488.50;;;24.20;51.72
34081;BME280;20358;50.272;19.026;2023-09-19T02:31:38;97495.50;;;24.21;52.00
34081;BME280;20358;50.272;19.026;2023-09-19T02:34:49;97495.13;;;24.24;51.94
34081;BME280;20358;50.272;19.026;2023-09-19T02:37:56;97494.78;;;24.27;51.73
34081;BME280;20358;50.272;19.026;2023-09-19T02:41:10;97495.25;;;24.30;51.64
34081;BME280;20358;50.272;19.026;2023-09-19T02:44:23;97488.31;;;24.36;51.97
34081;BME280;20358;50.272;19.026;2023-09-19T02:47:32;97490.19;;;24.35;51.91
34081;BME280;20358;50.272;19.026;2023-09-19T02:50:44;97485.03;;;24.34;52.15
34081;BME280;20358;50.272;19.026;2023-09-19T02:53:52;97479.03;;;24.32;52.10
34081;BME280;20358;50.272;19.026;2023-09-19T02:56:58;97478.75;;;24.27;52.11
34081;BME280;20358;50.272;19.026;2023-09-19T03:00:08;97481.13;;;24.22;52.09
34081;BME280;20358;50.272;19.026;2023-09-19T03:03:16;97481.50;;;24.19;52.40
34081;BME280;20358;50.272;19.026;2023-09-19T03:06:27;97485.56;;;24.15;52.47
34081;BME280;20358;50.272;19.026;2023-09-19T03:09:34;97480.56;;;24.12;53.38
34081;BME280;20358;50.272;19.026;2023-09-19T03:12:41;97472.25;;;24.06;55.68
34081;BME280;20358;50.272;19.026;2023-09-19T03:15:48;97486.66;;;23.97;56.45
34081;BME280;20358;50.272;19.026;2023-09-19T03:19:00;97488.41;;;23.90;57.07
34081;BME280;20358;50.272;19.026;2023-09-19T03:22:13;97488.09;;;23.85;57.99
34081;BME280;20358;50.272;19.026;2023-09-19T03:25:21;97484.50;;;23.78;57.75
34081;BME280;20358;50.272;19.026;2023-09-19T03:28:28;97477.00;;;23.74;58.09
34081;BME280;20358;50.272;19.026;2023-09-19T03:31:36;97472.56;;;23.66;58.27
34081;BME280;20358;50.272;19.026;2023-09-19T03:34:44;97473.47;;;23.59;57.93
34081;BME280;20358;50.272;19.026;2023-09-19T03:37:55;97475.47;;;23.57;58.55
34081;BME280;20358;50.272;19.026;2023-09-19T03:41:04;97462.31;;;23.55;59.64
34081;BME280;20358;50.272;19.026;2023-09-19T03:44:12;97465.69;;;23.49;60.18
34081;BME280;20358;50.272;19.026;2023-09-19T03:47:20;97472.03;;;23.48;60.63
34081;BME280;20358;50.272;19.026;2023-09-19T03:50:30;97473.69;;;23.49;60.68
34081;BME280;20358;50.272;19.026;2023-09-19T03:53:39;97463.03;;;23.49;61.41
34081;BME280;20358;50.272;19.026;2023-09-19T03:56:47;97459.56;;;23.40;61.53
34081;BME280;20358;50.272;19.026;2023-09-19T03:59:53;97468.75;;;23.38;61.78
34081;BME280;20358;50.272;19.026;2023-09-19T04:03:02;97465.47;;;23.28;62.26
34081;BME280;20358;50.272;19.026;2023-09-19T04:06:09;97463.78;;;23.27;62.68
34081;BME280;20358;50.272;19.026;2023-09-19T04:09:19;97465.34;;;23.21;63.46
34081;BME280;20358;50.272;19.026;2023-09-19T04:12:25;97463.88;;;23.19;63.63
34081;BME280;20358;50.272;19.026;2023-09-19T04:15:32;97470.53;;;23.15;63.98
34081;BME280;20358;50.272;19.026;2023-09-19T04:18:39;97463.53;;;23.14;64.13
34081;BME280;20358;50.272;19.026;2023-09-19T04:21:46;97452.22;;;23.12;64.70
34081;BME280;20358;50.272;19.026;2023-09-19T04:24:55;97458.19;;;23.14;64.87
34081;BME280;20358;50.272;19.026;2023-09-19T04:28:04;97454.53;;;23.15;65.17
34081;BME280;20358;50.272;19.026;2023-09-19T04:31:16;97443.03;;;23.14;65.42
34081;BME280;20358;50.272;19.026;2023-09-19T04:34:24;97452.53;;;23.17;65.52
34081;BME280;20358;50.272;19.026;2023-09-19T04:37:33;97448.88;;;23.18;65.77
34081;BME280;20358;50.272;19.026;2023-09-19T04:40:43;97443.34;;;23.19;65.89
34081;BME280;20358;50.272;19.026;2023-09-19T04:43:50;97442.34;;;23.20;65.94
34081;BME280;20358;50.272;19.026;2023-09-19T04:46:57;97448.16;;;23.24;65.77
34081;BME280;20358;50.272;19.026;2023-09-19T04:50:09;97441.50;;;23.20;65.66
34081;BME280;20358;50.272;19.026;2023-09-19T04:53:20;97436.53;;;23.17;66.22
34081;BME280;20358;50.272;19.026;2023-09-19T04:56:32;97454.53;;;23.15;66.33
34081;BME280;20358;50.272;19.026;2023-09-19T04:59:39;97449.69;;;23.18;65.08
34081;BME280;20358;50.272;19.026;2023-09-19T05:02:48;97450.78;;;23.32;64.78
34081;BME280;20358;50.272;19.026;2023-09-19T05:05:56;97455.75;;;23.35;65.75
34081;BME280;20358;50.272;19.026;2023-09-19T05:09:03;97456.94;;;23.32;65.85
34081;BME280;20358;50.272;19.026;2023-09-19T05:12:14;97459.25;;;23.35;65.47
34081;BME280;20358;50.272;19.026;2023-09-19T05:15:29;97473.75;;;23.33;65.69
34081;BME280;20358;50.272;19.026;2023-09-19T05:18:36;97479.78;;;23.27;66.29
34081;BME280;20358;50.272;19.026;2023-09-19T05:21:43;97483.34;;;23.19;66.42
34081;BME280;20358;50.272;19.026;2023-09-19T05:24:52;97479.34;;;23.23;65.96
34081;BME280;20358;50.272;19.026;2023-09-19T05:28:06;97489.50;;;23.20;66.29
34081;BME280;20358;50.272;19.026;2023-09-19T05:31:15;97496.22;;;23.16;67.26
34081;BME280;20358;50.272;19.026;2023-09-19T05:34:21;97491.63;;;22.94;67.09
34081;BME280;20358;50.272;19.026;2023-09-19T05:37:32;97500.34;;;22.88;66.81
34081;BME280;20358;50.272;19.026;2023-09-19T05:40:39;97491.38;;;22.72;66.37
34081;BME280;20358;50.272;19.026;2023-09-19T05:43:51;97497.41;;;22.58;66.42
34081;BME280;20358;50.272;19.026;2023-09-19T05:46:58;97503.13;;;22.23;67.37
34081;BME280;20358;50.272;19.026;2023-09-19T05:50:06;97504.47;;;22.27;66.74
34081;BME280;20358;50.272;19.026;2023-09-19T05:53:13;97520.13;;;22.14;67.09
34081;BME280;20358;50.272;19.026;2023-09-19T05:56:22;97517.97;;;22.17;67.57
34081;BME280;20358;50.272;19.026;2023-09-19T05:59:32;97516.63;;;22.13;67.08
34081;BME280;20358;50.272;19.026;2023-09-19T06:02:39;97515.78;;;22.13;66.58
34081;BME280;20358;50.272;19.026;2023-09-19T06:05:50;97525.44;;;22.06;66.44
34081;BME280;20358;50.272;19.026;2023-09-19T06:09:02;97526.44;;;22.05;66.93
34081;BME280;20358;50.272;19.026;2023-09-19T06:12:11;97524.78;;;21.96;67.13
34081;BME280;20358;50.272;19.026;2023-09-19T06:15:26;97535.44;;;21.96;67.30
34081;BME280;20358;50.272;19.026;2023-09-19T06:18:38;97536.41;;;21.95;67.39
34081;BME280;20358;50.272;19.026;2023-09-19T06:21:44;97535.75;;;21.93;67.71
34081;BME280;20358;50.272;19.026;2023-09-19T06:24:51;97552.03;;;21.90;67.26
34081;BME280;20358;50.272;19.026;2023-09-19T06:27:58;97543.53;;;21.78;68.13
34081;BME280;20358;50.272;19.026;2023-09-19T06:31:11;97557.00;;;21.77;68.19
34081;BME280;20358;50.272;19.026;2023-09-19T06:34:18;97540.09;;;21.86;68.27
34081;BME280;20358;50.272;19.026;2023-09-19T06:37:27;97554.34;;;21.85;68.39
34081;BME280;20358;50.272;19.026;2023-09-19T06:40:34;97550.84;;;21.84;68.60
34081;BME280;20358;50.272;19.026;2023-09-19T06:43:41;97575.28;;;21.72;69.20
34081;BME280;20358;50.272;19.026;2023-09-19T06:46:51;97578.63;;;21.74;69.09
34081;BME280;20358;50.272;19.026;2023-09-19T06:50:00;97577.94;;;21.80;69.09
34081;BME280;20358;50.272;19.026;2023-09-19T06:53:10;97582.44;;;21.79;69.03
34081;BME280;20358;50.272;19.026;2023-09-19T06:56:16;97590.75;;;21.84;69.00
34081;BME280;20358;50.272;19.026;2023-09-19T06:59:29;97589.31;;;21.90;68.93
34081;BME280;20358;50.272;19.026;2023-09-19T07:02:38;97600.06;;;21.80;69.33
34081;BME280;20358;50.272;19.026;2023-09-19T07:05:48;97611.03;;;21.77;69.60
34081;BME280;20358;50.272;19.026;2023-09-19T07:08:58;97609.34;;;21.60;70.32
34081;BME280;20358;50.272;19.026;2023-09-19T07:12:06;97613.84;;;21.68;70.22
34081;BME280;20358;50.272;19.026;2023-09-19T07:15:12;97614.19;;;21.73;70.16
34081;BME280;20358;50.272;19.026;2023-09-19T07:18:26;97620.19;;;21.75;69.98
34081;BME280;20358;50.272;19.026;2023-09-19T07:21:32;97627.31;;;21.74;69.88
34081;BME280;20358;50.272;19.026;2023-09-19T07:24:40;97637.94;;;21.66;70.27
34081;BME280;20358;50.272;19.026;2023-09-19T07:27:46;97650.44;;;21.66;70.45
34081;BME280;20358;50.272;19.026;2023-09-19T07:30:54;97654.59;;;21.68;70.06
34081;BME280;20358;50.272;19.026;2023-09-19T07:34:03;97637.31;;;21.72;70.35
34081;BME280;20358;50.272;19.026;2023-09-19T07:37:11;97660.94;;;21.75;69.89
34081;BME280;20358;50.272;19.026;2023-09-19T07:40:19;97661.28;;;21.80;69.86
34081;BME280;20358;50.272;19.026;2023-09-19T07:43:28;97664.78;;;21.81;69.36
34081;BME280;20358;50.272;19.026;2023-09-19T07:46:34;97670.66;;;22.00;68.87
34081;BME280;20358;50.272;19.026;2023-09-19T07:49:46;97681.50;;;21.99;68.88
34081;BME280;20358;50.272;19.026;2023-09-19T07:52:53;97700.69;;;21.85;68.74
34081;BME280;20358;50.272;19.026;2023-09-19T07:56:04;97689.72;;;21.80;69.09
34081;BME280;20358;50.272;19.026;2023-09-19T07:59:11;97703.69;;;21.82;69.38
34081;BME280;20358;50.272;19.026;2023-09-19T08:02:19;97709.75;;;21.92;69.41
34081;BME280;20358;50.272;19.026;2023-09-19T08:05:31;97716.97;;;21.74;69.23
34081;BME280;20358;50.272;19.026;2023-09-19T08:08:40;97719.78;;;21.72;69.84
34081;BME280;20358;50.272;19.026;2023-09-19T08:11:46;97728.63;;;21.81;70.18
34081;BME280;20358;50.272;19.026;2023-09-19T08:14:55;97736.13;;;21.85;69.76
34081;BME280;20358;50.272;19.026;2023-09-19T08:18:03;97732.88;;;21.91;69.92
34081;BME280;20358;50.272;19.026;2023-09-19T08:21:14;97740.41;;;21.70;70.23
34081;BME280;20358;50.272;19.026;2023-09-19T08:24:25;97737.22;;;21.67;70.51
34081;BME280;20358;50.272;19.026;2023-09-19T08:27:34;97749.38;;;21.69;70.69
34081;BME280;20358;50.272;19.026;2023-09-19T08:30:41;97753.22;;;21.75;70.41
34081;BME280;20358;50.272;19.026;2023-09-19T08:33:49;97759.22;;;21.77;70.86
34081;BME280;20358;50.272;19.026;2023-09-19T08:37:01;97758.91;;;21.80;70.41
34081;BME280;20358;50.272;19.026;2023-09-19T08:40:14;97766.47;;;21.92;70.45
34081;BME280;20358;50.272;19.026;2023-09-19T08:43:21;97768.66;;;22.05;70.08
34081;BME280;20358;50.272;19.026;2023-09-19T08:46:30;97749.34;;;21.95;70.13
34081;BME280;20358;50.272;19.026;2023-09-19T08:49:52;97757.00;;;21.98;70.48
34081;BME280;20358;50.272;19.026;2023-09-19T08:53:26;97763.91;;;21.83;70.49
34081;BME280;20358;50.272;19.026;2023-09-19T08:56:35;97760.50;;;21.64;70.94
34081;BME280;20358;50.272;19.026;2023-09-19T08:59:51;97762.56;;;21.53;71.32
34081;BME280;20358;50.272;19.026;2023-09-19T09:03:09;97754.97;;;21.32;71.50
34081;BME280;20358;50.272;19.026;2023-09-19T09:06:19;97772.84;;;21.40;72.20
34081;BME280;20358;50.272;19.026;2023-09-19T09:09:39;97763.22;;;21.21;72.41
34081;BME280;20358;50.272;19.026;2023-09-19T09:12:53;97778.72;;;21.26;73.22
34081;BME280;20358;50.272;19.026;2023-09-19T09:16:00;97784.22;;;21.32;73.15
34081;BME280;20358;50.272;19.026;2023-09-19T09:19:09;97778.66;;;21.43;72.71
34081;BME280;20358;50.272;19.026;2023-09-19T09:22:15;97771.56;;;21.52;72.64
34081;BME280;20358;50.272;19.026;2023-09-19T09:25:47;97783.72;;;21.54;72.63
34081;BME280;20358;50.272;19.026;2023-09-19T09:28:57;97777.91;;;21.59;72.46
34081;BME280;20358;50.272;19.026;2023-09-19T09:32:17;97783.13;;;21.69;71.85
34081;BME280;20358;50.272;19.026;2023-09-19T09:35:31;97776.53;;;21.81;71.42
34081;BME280;20358;50.272;19.026;2023-09-19T09:38:47;97780.59;;;21.93;71.36
34081;BME280;20358;50.272;19.026;2023-09-19T09:42:00;97791.97;;;22.03;70.79
34081;BME280;20358;50.272;19.026;2023-09-19T09:45:17;97788.50;;;22.10;70.70
34081;BME280;20358;50.272;19.026;2023-09-19T09:48:35;97796.38;;;22.20;70.42
34081;BME280;20358;50.272;19.026;2023-09-19T09:51:43;97786.06;;;22.25;69.94
34081;BME280;20358;50.272;19.026;2023-09-19T09:55:00;97798.63;;;22.49;68.84
34081;BME280;20358;50.272;19.026;2023-09-19T09:58:21;97803.13;;;22.56;68.37
34081;BME280;20358;50.272;19.026;2023-09-19T10:01:46;97801.91;;;22.35;68.35
34081;BME280;20358;50.272;19.026;2023-09-19T10:04:57;97804.13;;;22.55;68.08
34081;BME280;20358;50.272;19.026;2023-09-19T10:08:13;97815.44;;;22.57;67.83
34081;BME280;20358;50.272;19.026;2023-09-19T10:11:22;97814.13;;;22.61;67.59
34081;BME280;20358;50.272;19.026;2023-09-19T10:14:38;97817.50;;;22.63;67.25
34081;BME280;20358;50.272;19.026;2023-09-19T10:18:11;97808.16;;;22.67;66.74
34081;BME280;20358;50.272;19.026;2023-09-19T10:21:21;97822.97;;;22.70;66.19
34081;BME280;20358;50.272;19.026;2023-09-19T10:24:35;97811.16;;;22.72;66.40
34081;BME280;20358;50.272;19.026;2023-09-19T10:28:08;97816.84;;;22.85;66.19
34081;BME280;20358;50.272;19.026;2023-09-19T10:31:22;97828.19;;;22.79;66.05
34081;BME280;20358;50.272;19.026;2023-09-19T10:34:34;97832.03;;;22.85;66.39
34081;BME280;20358;50.272;19.026;2023-09-19T10:37:47;97840.50;;;22.89;66.60
34081;BME280;20358;50.272;19.026;2023-09-19T10:41:05;97823.34;;;22.83;67.07
34081;BME280;20358;50.272;19.026;2023-09-19T10:44:17;97841.34;;;22.81;66.77
34081;BME280;20358;50.272;19.026;2023-09-19T10:47:31;97850.84;;;22.83;66.63
34081;BME280;20358;50.272;19.026;2023-09-19T10:50:46;97851.50;;;22.69;66.96
34081;BME280;20358;50.272;19.026;2023-09-19T10:54:02;97843.75;;;22.58;67.05
34081;BME280;20358;50.272;19.026;2023-09-19T10:57:20;97853.56;;;22.50;67.70
34081;BME280;20358;50.272;19.026;2023-09-19T11:00:28;97852.69;;;22.41;68.11
34081;BME280;20358;50.272;19.026;2023-09-19T11:03:41;97869.19;;;22.11;67.55
34081;BME280;20358;50.272;19.026;2023-09-19T11:07:03;97877.09;;;21.95;66.08
34081;BME280;20358;50.272;19.026;2023-09-19T11:10:44;97876.09;;;21.70;67.30
34081;BME280;20358;50.272;19.026;2023-09-19T11:14:15;97866.91;;;21.64;66.95
34081;BME280;20358;50.272;19.026;2023-09-19T11:17:40;97869.91;;;21.44;68.36
34081;BME280;20358;50.272;19.026;2023-09-19T11:24:47;97872.91;;;21.23;70.00
34081;BME280;20358;50.272;19.026;2023-09-19T11:31:52;97869.34;;;21.15;71.50
34081;BME280;20358;50.272;19.026;2023-09-19T11:35:11;97869.88;;;21.18;71.58
34081;BME280;20358;50.272;19.026;2023-09-19T11:42:42;97878.53;;;21.20;71.67
34081;BME280;20358;50.272;19.026;2023-09-19T11:46:07;97884.44;;;21.14;71.68
34081;BME280;20358;50.272;19.026;2023-09-19T11:49:13;97880.72;;;21.07;72.01
34081;BME280;20358;50.272;19.026;2023-09-19T11:52:32;97869.13;;;21.08;72.29
34081;BME280;20358;50.272;19.026;2023-09-19T11:55:46;97881.94;;;21.13;72.57
34081;BME280;20358;50.272;19.026;2023-09-19T11:58:58;97884.44;;;21.14;72.37
34081;BME280;20358;50.272;19.026;2023-09-19T12:02:06;97878.81;;;21.17;72.33
34081;BME280;20358;50.272;19.026;2023-09-19T12:05:14;97882.59;;;21.32;72.92
34081;BME280;20358;50.272;19.026;2023-09-19T12:08:29;97882.91;;;21.47;72.80
34081;BME280;20358;50.272;19.026;2023-09-19T12:11:42;97879.53;;;21.62;72.15
34081;BME280;20358;50.272;19.026;2023-09-19T12:14:50;97884.38;;;21.67;71.47
34081;BME280;20358;50.272;19.026;2023-09-19T12:18:00;97872.75;;;21.68;70.74
34081;BME280;20358;50.272;19.026;2023-09-19T12:21:08;97878.81;;;21.78;70.53
34081;BME280;20358;50.272;19.026;2023-09-19T12:24:30;97880.72;;;21.86;70.31
34081;BME280;20358;50.272;19.026;2023-09-19T12:27:52;97888.75;;;21.94;69.91
34081;BME280;20358;50.272;19.026;2023-09-19T12:31:06;97886.16;;;22.02;69.75
34081;BME280;20358;50.272;19.026;2023-09-19T12:34:16;97895.47;;;22.06;68.75
34081;BME280;20358;50.272;19.026;2023-09-19T12:37:26;97896.44;;;21.97;68.56
34081;BME280;20358;50.272;19.026;2023-09-19T12:40:34;97895.38;;;21.90;69.24
34081;BME280;20358;50.272;19.026;2023-09-19T12:43:44;97894.50;;;22.07;69.47
34081;BME280;20358;50.272;19.026;2023-09-19T12:46:51;97892.91;;;22.22;69.23
34081;BME280;20358;50.272;19.026;2023-09-19T12:50:11;97894.31;;;22.42;69.29
34081;BME280;20358;50.272;19.026;2023-09-19T12:53:25;97896.38;;;22.56;67.96
34081;BME280;20358;50.272;19.026;2023-09-19T12:56:40;97900.44;;;22.68;67.04
34081;BME280;20358;50.272;19.026;2023-09-19T12:59:52;97892.53;;;22.93;66.80
34081;BME280;20358;50.272;19.026;2023-09-19T13:03:12;97891.53;;;23.18;66.32
34081;BME280;20358;50.272;19.026;2023-09-19T13:06:35;97891.94;;;23.39;65.25
34081;BME280;20358;50.272;19.026;2023-09-19T13:10:03;97889.38;;;23.29;63.44
34081;BME280;20358;50.272;19.026;2023-09-19T13:13:23;97894.72;;;23.29;62.86
34081;BME280;20358;50.272;19.026;2023-09-19T13:16:53;97883.25;;;23.45;63.05
34081;BME280;20358;50.272;19.026;2023-09-19T13:20:06;97887.91;;;23.51;63.17
34081;BME280;20358;50.272;19.026;2023-09-19T13:23:30;97884.59;;;23.73;62.88
34081;BME280;20358;50.272;19.026;2023-09-19T13:26:39;97887.19;;;23.89;62.88
34081;BME280;20358;50.272;19.026;2023-09-19T13:29:50;97886.88;;;24.09;62.61
34081;BME280;20358;50.272;19.026;2023-09-19T13:33:08;97890.81;;;24.21;61.12
34081;BME280;20358;50.272;19.026;2023-09-19T13:36:22;97892.84;;;24.19;60.11
34081;BME280;20358;50.272;19.026;2023-09-19T13:39:29;97895.00;;;24.23;60.96
34081;BME280;20358;50.272;19.026;2023-09-19T13:42:36;97890.19;;;24.11;58.24
34081;BME280;20358;50.272;19.026;2023-09-19T13:45:46;97891.53;;;24.15;58.99
34081;BME280;20358;50.272;19.026;2023-09-19T13:48:55;97893.50;;;24.21;59.42
34081;BME280;20358;50.272;19.026;2023-09-19T13:52:03;97895.84;;;24.16;58.03
34081;BME280;20358;50.272;19.026;2023-09-19T13:55:11;97883.50;;;24.23;58.80
34081;BME280;20358;50.272;19.026;2023-09-19T13:58:23;97895.16;;;24.30;59.04
34081;BME280;20358;50.272;19.026;2023-09-19T14:01:30;97888.78;;;24.31;58.06
34081;BME280;20358;50.272;19.026;2023-09-19T14:04:39;97899.31;;;24.32;57.95
34081;BME280;20358;50.272;19.026;2023-09-19T14:07:47;97905.84;;;24.30;57.95
34081;BME280;20358;50.272;19.026;2023-09-19T14:10:58;97906.31;;;24.33;58.89
34081;BME280;20358;50.272;19.026;2023-09-19T14:14:07;97896.66;;;24.32;59.35
34081;BME280;20358;50.272;19.026;2023-09-19T14:17:18;97903.19;;;24.22;60.90
34081;BME280;20358;50.272;19.026;2023-09-19T14:20:28;97900.84;;;24.19;61.88
34081;BME280;20358;50.272;19.026;2023-09-19T14:23:35;97900.19;;;24.17;61.82
34081;BME280;20358;50.272;19.026;2023-09-19T14:26:42;97907.69;;;24.21;62.36
34081;BME280;20358;50.272;19.026;2023-09-19T14:29:49;97900.50;;;24.30;61.67
34081;BME280;20358;50.272;19.026;2023-09-19T14:33:05;97908.31;;;24.31;61.63
34081;BME280;20358;50.272;19.026;2023-09-19T14:36:14;97898.78;;;24.45;61.98
34081;BME280;20358;50.272;19.026;2023-09-19T14:39:22;97896.03;;;24.61;61.39
34081;BME280;20358;50.272;19.026;2023-09-19T14:42:31;97905.97;;;24.75;60.43
34081;BME280;20358;50.272;19.026;2023-09-19T14:45:39;97910.78;;;24.88;60.16
34081;BME280;20358;50.272;19.026;2023-09-19T14:48:45;97912.25;;;24.90;59.46
34081;BME280;20358;50.272;19.026;2023-09-19T14:51:57;97904.25;;;24.90;58.99
34081;BME280;20358;50.272;19.026;2023-09-19T14:55:07;97912.59;;;24.95;59.61
34081;BME280;20358;50.272;19.026;2023-09-19T14:58:19;97906.06;;;24.98;58.75
34081;BME280;20358;50.272;19.026;2023-09-19T15:01:25;97911.13;;;24.93;58.76
34081;BME280;20358;50.272;19.026;2023-09-19T15:04:32;97911.31;;;24.83;59.08
34081;BME280;20358;50.272;19.026;2023-09-19T15:07:42;97907.69;;;24.68;59.11
34081;BME280;20358;50.272;19.026;2023-09-19T15:10:52;97916.09;;;24.49;58.81
34081;BME280;20358;50.272;19.026;2023-09-19T15:14:00;97924.00;;;24.42;58.83
34081;BME280;20358;50.272;19.026;2023-09-19T15:17:09;97920.91;;;24.06;55.53
34081;BME280;20358;50.272;19.026;2023-09-19T15:20:16;97905.53;;;24.00;54.68
34081;BME280;20358;50.272;19.026;2023-09-19T15:23:26;97902.25;;;23.82;55.32
34081;BME280;20358;50.272;19.026;2023-09-19T15:26:35;97911.94;;;23.67;53.84
34081;BME280;20358;50.272;19.026;2023-09-19T15:29:43;97908.41;;;23.75;55.30
34081;BME280;20358;50.272;19.026;2023-09-19T15:32:50;97902.91;;;23.84;55.77
34081;BME280;20358;50.272;19.026;2023-09-19T15:36:05;97880.88;;;23.82;55.44
34081;BME280;20358;50.272;19.026;2023-09-19T15:39:15;97899.22;;;24.01;55.07
34081;BME280;20358;50.272;19.026;2023-09-19T15:42:27;97904.88;;;24.06;54.10
34081;BME280;20358;50.272;19.026;2023-09-19T15:45:40;97913.25;;;24.12;54.96
34081;BME280;20358;50.272;19.026;2023-09-19T15:48:47;97908.75;;;24.12;55.31
34081;BME280;20358;50.272;19.026;2023-09-19T15:51:54;97905.38;;;24.10;55.07
34081;BME280;20358;50.272;19.026;2023-09-19T15:55:07;97909.19;;;24.07;55.29
34081;BME280;20358;50.272;19.026;2023-09-19T15:58:18;97900.38;;;23.99;55.13
34081;BME280;20358;50.272;19.026;2023-09-19T16:01:25;97904.88;;;23.98;55.35
34081;BME280;20358;50.272;19.026;2023-09-19T16:04:31;97908.72;;;23.96;55.53
34081;BME280;20358;50.272;19.026;2023-09-19T16:07:43;97899.88;;;23.95;56.07
34081;BME280;20358;50.272;19.026;2023-09-19T16:10:52;97913.91;;;23.89;56.13
34081;BME280;20358;50.272;19.026;2023-09-19T16:13:59;97924.94;;;23.86;56.21
34081;BME280;20358;50.272;19.026;2023-09-19T16:17:06;97928.94;;;23.82;56.23
34081;BME280;20358;50.272;19.026;2023-09-19T16:20:19;97928.94;;;23.74;56.79
34081;BME280;20358;50.272;19.026;2023-09-19T16:23:31;97936.78;;;23.68;57.26
34081;BME280;20358;50.272;19.026;2023-09-19T16:26:41;97937.63;;;23.60;57.89
34081;BME280;20358;50.272;19.026;2023-09-19T16:29:48;97938.28;;;23.46;58.33
34081;BME280;20358;50.272;19.026;2023-09-19T16:32:56;97935.91;;;23.35;58.90
34081;BME280;20358;50.272;19.026;2023-09-19T16:36:08;97945.22;;;23.23;59.33
34081;BME280;20358;50.272;19.026;2023-09-19T16:39:16;97941.84;;;23.05;59.80
34081;BME280;20358;50.272;19.026;2023-09-19T16:42:25;97949.50;;;22.92;60.33
34081;BME280;20358;50.272;19.026;2023-09-19T16:45:51;97955.28;;;22.79;60.92
34081;BME280;20358;50.272;19.026;2023-09-19T16:49:00;97962.50;;;22.61;61.79
34081;BME280;20358;50.272;19.026;2023-09-19T16:52:09;97960.44;;;22.47;62.45
34081;BME280;20358;50.272;19.026;2023-09-19T16:55:15;97957.22;;;22.35;62.83
34081;BME280;20358;50.272;19.026;2023-09-19T16:58:27;97954.50;;;22.27;63.18
34081;BME280;20358;50.272;19.026;2023-09-19T17:01:35;97962.44;;;22.19;63.73